sensor_id;sensor_type;location;lat;lon;timestamp;P1;durP1;ratioP1;P2;durP2;ratioP2
3343;SDS011;1685;53.104;8.228;2023-07-31T00:01:02;8.80;;;4.37;;
3343;SDS011;1685;53.104;8.228;2023-07-31T00:03:29;5.97;;;3.40;;
3343;SDS011;1685;53.104;8.228;2023-07-31T00:05:56;6.03;;;4.23;;
3343;SDS011;1685;53.104;8.228;2023-07-31T00:08:24;6.20;;;4.03;;
3343;SDS011;1685;53.104;8.228;2023-07-31T00:10:52;6.20;;;3.63;;
3343;SDS011;1685;53.104;8.228;2023-07-31T00:13:19;6.03;;;3.30;;
3343;SDS011;1685;53.104;8.228;2023-07-31T00:15:46;4.67;;;3.73;;
3343;SDS011;1685;53.104;8.228;2023-07-31T00:18:13;4.77;;;3.80;;
3343;SDS011;1685;53.104;8.228;2023-07-31T00:20:41;6.30;;;3.43;;
3343;SDS011;1685;53.104;8.228;2023-07-31T00:23:08;4.63;;;3.60;;
3343;SDS011;1685;53.104;8.228;2023-07-31T00:25:35;5.33;;;3.00;;
3343;SDS011;1685;53.104;8.228;2023-07-31T00:28:04;6.53;;;3.20;;
3343;SDS011;1685;53.104;8.228;2023-07-31T00:30:30;5.43;;;3.33;;
3343;SDS011;1685;53.104;8.228;2023-07-31T00:32:58;3.83;;;3.30;;
3343;SDS011;1685;53.104;8.228;2023-07-31T00:35:25;4.13;;;3.10;;
3343;SDS011;1685;53.104;8.228;2023-07-31T00:37:52;3.53;;;3.07;;
3343;SDS011;1685;53.104;8.228;2023-07-31T00:40:19;3.67;;;2.67;;
3343;SDS011;1685;53.104;8.228;2023-07-31T00:42:46;3.30;;;2.87;;
3343;SDS011;1685;53.104;8.228;2023-07-31T00:45:15;4.97;;;3.57;;
3343;SDS011;1685;53.104;8.228;2023-07-31T00:47:42;4.83;;;3.20;;
3343;SDS011;1685;53.104;8.228;2023-07-31T00:50:09;8.73;;;2.63;;
3343;SDS011;1685;53.104;8.228;2023-07-31T00:52:37;6.50;;;3.30;;
3343;SDS011;1685;53.104;8.228;2023-07-31T00:55:04;3.77;;;3.10;;
3343;SDS011;1685;53.104;8.228;2023-07-31T00:57:32;3.27;;;2.83;;
3343;SDS011;1685;53.104;8.228;2023-07-31T00:59:59;4.23;;;3.17;;
3343;SDS011;1685;53.104;8.228;2023-07-31T01:02:28;2.63;;;2.30;;
3343;SDS011;1685;53.104;8.228;2023-07-31T01:04:55;4.10;;;3.57;;
3343;SDS011;1685;53.104;8.228;2023-07-31T01:07:25;3.57;;;3.20;;
3343;SDS011;1685;53.104;8.228;2023-07-31T01:10:00;4.70;;;2.63;;
3343;SDS011;1685;53.104;8.228;2023-07-31T01:12:30;3.97;;;3.07;;
3343;SDS011;1685;53.104;8.228;2023-07-31T01:15:04;4.00;;;2.77;;
3343;SDS011;1685;53.104;8.228;2023-07-31T01:17:33;4.53;;;3.50;;
3343;SDS011;1685;53.104;8.228;2023-07-31T01:20:01;8.50;;;3.10;;
3343;SDS011;1685;53.104;8.228;2023-07-31T01:22:32;5.20;;;3.37;;
3343;SDS011;1685;53.104;8.228;2023-07-31T01:25:32;3.97;;;3.67;;
3343;SDS011;1685;53.104;8.228;2023-07-31T01:28:17;4.20;;;3.50;;
3343;SDS011;1685;53.104;8.228;2023-07-31T01:30:48;6.90;;;3.53;;
3343;SDS011;1685;53.104;8.228;2023-07-31T01:33:16;9.93;;;3.47;;
3343;SDS011;1685;53.104;8.228;2023-07-31T01:35:44;2.80;;;2.60;;
3343;SDS011;1685;53.104;8.228;2023-07-31T01:38:12;4.67;;;3.27;;
3343;SDS011;1685;53.104;8.228;2023-07-31T01:40:41;4.30;;;3.10;;
3343;SDS011;1685;53.104;8.228;2023-07-31T01:43:09;3.80;;;3.50;;
3343;SDS011;1685;53.104;8.228;2023-07-31T01:45:36;7.53;;;4.17;;
3343;SDS011;1685;53.104;8.228;2023-07-31T01:48:03;7.53;;;3.40;;
3343;SDS011;1685;53.104;8.228;2023-07-31T01:50:31;4.30;;;3.40;;
3343;SDS011;1685;53.104;8.228;2023-07-31T01:52:58;4.27;;;3.10;;
3343;SDS011;1685;53.104;8.228;2023-07-31T01:55:25;3.07;;;2.80;;
3343;SDS011;1685;53.104;8.228;2023-07-31T01:57:53;5.23;;;3.57;;
3343;SDS011;1685;53.104;8.228;2023-07-31T02:00:21;3.57;;;3.10;;
3343;SDS011;1685;53.104;8.228;2023-07-31T02:02:48;4.43;;;3.40;;
3343;SDS011;1685;53.104;8.228;2023-07-31T02:05:16;3.03;;;2.83;;
3343;SDS011;1685;53.104;8.228;2023-07-31T02:07:43;4.70;;;3.60;;
3343;SDS011;1685;53.104;8.228;2023-07-31T02:10:10;9.43;;;4.00;;
3343;SDS011;1685;53.104;8.228;2023-07-31T02:12:37;8.27;;;3.37;;
3343;SDS011;1685;53.104;8.228;2023-07-31T02:15:04;4.03;;;3.50;;
3343;SDS011;1685;53.104;8.228;2023-07-31T02:17:33;5.40;;;3.63;;
3343;SDS011;1685;53.104;8.228;2023-07-31T02:20:00;5.63;;;3.40;;
3343;SDS011;1685;53.104;8.228;2023-07-31T02:22:27;6.50;;;3.70;;
3343;SDS011;1685;53.104;8.228;2023-07-31T02:24:54;9.33;;;4.20;;
3343;SDS011;1685;53.104;8.228;2023-07-31T02:27:22;4.57;;;4.13;;
3343;SDS011;1685;53.104;8.228;2023-07-31T02:29:52;3.77;;;3.33;;
3343;SDS011;1685;53.104;8.228;2023-07-31T02:32:19;4.40;;;4.00;;
3343;SDS011;1685;53.104;8.228;2023-07-31T02:34:48;5.93;;;4.10;;
3343;SDS011;1685;53.104;8.228;2023-07-31T02:37:15;4.53;;;3.80;;
3343;SDS011;1685;53.104;8.228;2023-07-31T02:39:42;6.67;;;3.73;;
3343;SDS011;1685;53.104;8.228;2023-07-31T02:42:09;5.50;;;4.37;;
3343;SDS011;1685;53.104;8.228;2023-07-31T02:44:36;9.70;;;4.40;;
3343;SDS011;1685;53.104;8.228;2023-07-31T02:47:03;6.53;;;3.67;;
3343;SDS011;1685;53.104;8.228;2023-07-31T02:49:31;7.50;;;4.47;;
3343;SDS011;1685;53.104;8.228;2023-07-31T02:51:59;4.70;;;4.30;;
3343;SDS011;1685;53.104;8.228;2023-07-31T02:54:26;5.83;;;4.97;;
3343;SDS011;1685;53.104;8.228;2023-07-31T02:56:53;6.73;;;5.00;;
3343;SDS011;1685;53.104;8.228;2023-07-31T02:59:20;5.00;;;4.50;;
3343;SDS011;1685;53.104;8.228;2023-07-31T03:01:47;4.77;;;4.20;;
3343;SDS011;1685;53.104;8.228;2023-07-31T03:04:15;5.43;;;4.90;;
3343;SDS011;1685;53.104;8.228;2023-07-31T03:06:42;8.83;;;5.10;;
3343;SDS011;1685;53.104;8.228;2023-07-31T03:09:10;5.60;;;4.87;;
3343;SDS011;1685;53.104;8.228;2023-07-31T03:11:38;5.60;;;5.10;;
3343;SDS011;1685;53.104;8.228;2023-07-31T03:14:06;5.37;;;4.87;;
3343;SDS011;1685;53.104;8.228;2023-07-31T03:16:33;6.23;;;5.00;;
3343;SDS011;1685;53.104;8.228;2023-07-31T03:19:00;6.80;;;5.60;;
3343;SDS011;1685;53.104;8.228;2023-07-31T03:21:27;6.10;;;5.50;;
3343;SDS011;1685;53.104;8.228;2023-07-31T03:23:54;6.13;;;5.53;;
3343;SDS011;1685;53.104;8.228;2023-07-31T03:26:23;5.73;;;5.13;;
3343;SDS011;1685;53.104;8.228;2023-07-31T03:28:49;8.57;;;5.87;;
3343;SDS011;1685;53.104;8.228;2023-07-31T03:31:17;7.13;;;6.00;;
3343;SDS011;1685;53.104;8.228;2023-07-31T03:33:44;5.93;;;5.00;;
3343;SDS011;1685;53.104;8.228;2023-07-31T03:36:11;7.00;;;5.90;;
3343;SDS011;1685;53.104;8.228;2023-07-31T03:38:38;6.50;;;5.57;;
3343;SDS011;1685;53.104;8.228;2023-07-31T03:41:05;6.07;;;5.47;;
3343;SDS011;1685;53.104;8.228;2023-07-31T03:43:34;7.60;;;5.93;;
3343;SDS011;1685;53.104;8.228;2023-07-31T03:46:00;7.20;;;5.50;;
3343;SDS011;1685;53.104;8.228;2023-07-31T03:48:28;6.03;;;5.40;;
3343;SDS011;1685;53.104;8.228;2023-07-31T03:50:55;6.53;;;5.70;;
3343;SDS011;1685;53.104;8.228;2023-07-31T03:53:22;6.07;;;4.93;;
3343;SDS011;1685;53.104;8.228;2023-07-31T03:55:49;5.57;;;5.17;;
3343;SDS011;1685;53.104;8.228;2023-07-31T03:58:16;8.30;;;5.73;;
3343;SDS011;1685;53.104;8.228;2023-07-31T04:00:45;5.23;;;4.57;;
3343;SDS011;1685;53.104;8.228;2023-07-31T04:03:13;7.87;;;5.20;;
3343;SDS011;1685;53.104;8.228;2023-07-31T04:05:40;5.23;;;4.80;;
3343;SDS011;1685;53.104;8.228;2023-07-31T04:08:07;5.27;;;4.77;;
3343;SDS011;1685;53.104;8.228;2023-07-31T04:10:34;5.00;;;4.50;;
3343;SDS011;1685;53.104;8.228;2023-07-31T04:13:01;4.47;;;4.07;;
3343;SDS011;1685;53.104;8.228;2023-07-31T04:15:28;3.97;;;3.67;;
3343;SDS011;1685;53.104;8.228;2023-07-31T04:17:57;4.03;;;3.37;;
3343;SDS011;1685;53.104;8.228;2023-07-31T04:20:24;4.10;;;3.70;;
3343;SDS011;1685;53.104;8.228;2023-07-31T04:22:51;6.37;;;3.90;;
3343;SDS011;1685;53.104;8.228;2023-07-31T04:25:18;5.20;;;3.97;;
3343;SDS011;1685;53.104;8.228;2023-07-31T04:27:45;6.00;;;3.50;;
3343;SDS011;1685;53.104;8.228;2023-07-31T04:30:12;3.90;;;3.60;;
3343;SDS011;1685;53.104;8.228;2023-07-31T04:32:39;4.20;;;3.33;;
3343;SDS011;1685;53.104;8.228;2023-07-31T04:35:08;3.33;;;3.03;;
3343;SDS011;1685;53.104;8.228;2023-07-31T04:37:35;3.43;;;3.13;;
3343;SDS011;1685;53.104;8.228;2023-07-31T04:40:03;3.57;;;3.27;;
3343;SDS011;1685;53.104;8.228;2023-07-31T04:42:30;2.57;;;2.30;;
3343;SDS011;1685;53.104;8.228;2023-07-31T04:44:58;3.30;;;2.57;;
3343;SDS011;1685;53.104;8.228;2023-07-31T04:47:25;2.63;;;2.43;;
3343;SDS011;1685;53.104;8.228;2023-07-31T04:49:52;3.17;;;2.97;;
3343;SDS011;1685;53.104;8.228;2023-07-31T04:52:21;2.10;;;2.00;;
3343;SDS011;1685;53.104;8.228;2023-07-31T04:54:47;2.30;;;2.17;;
3343;SDS011;1685;53.104;8.228;2023-07-31T04:57:15;2.13;;;2.03;;
3343;SDS011;1685;53.104;8.228;2023-07-31T04:59:42;2.20;;;2.00;;
3343;SDS011;1685;53.104;8.228;2023-07-31T05:02:11;1.60;;;1.50;;
3343;SDS011;1685;53.104;8.228;2023-07-31T05:04:38;2.10;;;1.90;;
3343;SDS011;1685;53.104;8.228;2023-07-31T05:07:05;2.20;;;2.07;;
3343;SDS011;1685;53.104;8.228;2023-07-31T05:09:34;1.50;;;1.50;;
3343;SDS011;1685;53.104;8.228;2023-07-31T05:12:00;1.73;;;1.60;;
3343;SDS011;1685;53.104;8.228;2023-07-31T05:14:28;1.50;;;1.50;;
3343;SDS011;1685;53.104;8.228;2023-07-31T05:16:55;1.63;;;1.53;;
3343;SDS011;1685;53.104;8.228;2023-07-31T05:19:22;1.57;;;1.47;;
3343;SDS011;1685;53.104;8.228;2023-07-31T05:21:49;2.20;;;1.83;;
3343;SDS011;1685;53.104;8.228;2023-07-31T05:24:16;1.60;;;1.50;;
3343;SDS011;1685;53.104;8.228;2023-07-31T05:26:45;4.80;;;1.80;;
3343;SDS011;1685;53.104;8.228;2023-07-31T05:29:11;1.83;;;1.73;;
3343;SDS011;1685;53.104;8.228;2023-07-31T05:31:39;1.93;;;1.83;;
3343;SDS011;1685;53.104;8.228;2023-07-31T05:34:06;2.40;;;2.30;;
3343;SDS011;1685;53.104;8.228;2023-07-31T05:36:33;3.73;;;3.30;;
3343;SDS011;1685;53.104;8.228;2023-07-31T05:39:00;2.80;;;2.60;;
3343;SDS011;1685;53.104;8.228;2023-07-31T05:41:31;3.07;;;2.70;;
3343;SDS011;1685;53.104;8.228;2023-07-31T05:43:59;2.80;;;2.60;;
3343;SDS011;1685;53.104;8.228;2023-07-31T05:46:26;3.40;;;2.57;;
3343;SDS011;1685;53.104;8.228;2023-07-31T05:48:54;2.70;;;2.60;;
3343;SDS011;1685;53.104;8.228;2023-07-31T05:51:21;3.77;;;3.47;;
3343;SDS011;1685;53.104;8.228;2023-07-31T05:53:48;3.27;;;2.93;;
3343;SDS011;1685;53.104;8.228;2023-07-31T05:56:15;2.77;;;2.57;;
3343;SDS011;1685;53.104;8.228;2023-07-31T05:58:42;2.50;;;2.40;;
3343;SDS011;1685;53.104;8.228;2023-07-31T06:01:10;2.27;;;2.17;;
3343;SDS011;1685;53.104;8.228;2023-07-31T06:03:37;2.30;;;2.20;;
3343;SDS011;1685;53.104;8.228;2023-07-31T06:06:04;2.07;;;1.97;;
3343;SDS011;1685;53.104;8.228;2023-07-31T06:08:31;1.87;;;1.77;;
3343;SDS011;1685;53.104;8.228;2023-07-31T06:10:59;1.80;;;1.67;;
3343;SDS011;1685;53.104;8.228;2023-07-31T06:13:26;1.53;;;1.50;;
3343;SDS011;1685;53.104;8.228;2023-07-31T06:15:53;3.03;;;1.77;;
3343;SDS011;1685;53.104;8.228;2023-07-31T06:18:21;2.10;;;1.33;;
3343;SDS011;1685;53.104;8.228;2023-07-31T06:20:48;1.40;;;1.23;;
3343;SDS011;1685;53.104;8.228;2023-07-31T06:23:18;1.20;;;1.20;;
3343;SDS011;1685;53.104;8.228;2023-07-31T06:25:45;1.60;;;1.50;;
3343;SDS011;1685;53.104;8.228;2023-07-31T06:28:12;1.30;;;1.30;;
3343;SDS011;1685;53.104;8.228;2023-07-31T06:30:39;1.77;;;1.67;;
3343;SDS011;1685;53.104;8.228;2023-07-31T06:33:07;2.40;;;2.27;;
3343;SDS011;1685;53.104;8.228;2023-07-31T06:35:36;2.17;;;1.97;;
3343;SDS011;1685;53.104;8.228;2023-07-31T06:38:02;2.00;;;1.90;;
3343;SDS011;1685;53.104;8.228;2023-07-31T06:40:29;2.23;;;2.03;;
3343;SDS011;1685;53.104;8.228;2023-07-31T06:42:57;2.83;;;2.37;;
3343;SDS011;1685;53.104;8.228;2023-07-31T06:45:24;3.40;;;2.40;;
3343;SDS011;1685;53.104;8.228;2023-07-31T06:47:51;2.30;;;2.20;;
3343;SDS011;1685;53.104;8.228;2023-07-31T06:50:18;5.43;;;2.37;;
3343;SDS011;1685;53.104;8.228;2023-07-31T06:52:47;3.90;;;2.73;;
3343;SDS011;1685;53.104;8.228;2023-07-31T06:55:17;2.30;;;1.97;;
3343;SDS011;1685;53.104;8.228;2023-07-31T06:57:45;2.50;;;2.30;;
3343;SDS011;1685;53.104;8.228;2023-07-31T07:00:12;2.57;;;2.37;;
3343;SDS011;1685;53.104;8.228;2023-07-31T07:02:39;2.60;;;2.40;;
3343;SDS011;1685;53.104;8.228;2023-07-31T07:05:07;2.27;;;2.10;;
3343;SDS011;1685;53.104;8.228;2023-07-31T07:07:34;2.70;;;2.53;;
3343;SDS011;1685;53.104;8.228;2023-07-31T07:10:03;2.57;;;2.37;;
3343;SDS011;1685;53.104;8.228;2023-07-31T07:12:31;3.60;;;2.97;;
3343;SDS011;1685;53.104;8.228;2023-07-31T07:14:58;4.23;;;3.27;;
3343;SDS011;1685;53.104;8.228;2023-07-31T07:17:26;9.60;;;3.73;;
3343;SDS011;1685;53.104;8.228;2023-07-31T07:19:53;14.70;;;4.77;;
3343;SDS011;1685;53.104;8.228;2023-07-31T07:22:21;7.80;;;4.73;;
3343;SDS011;1685;53.104;8.228;2023-07-31T07:24:48;5.77;;;4.40;;
3343;SDS011;1685;53.104;8.228;2023-07-31T07:27:16;10.90;;;6.10;;
3343;SDS011;1685;53.104;8.228;2023-07-31T07:29:43;9.07;;;5.83;;
3343;SDS011;1685;53.104;8.228;2023-07-31T07:32:10;18.70;;;6.87;;
3343;SDS011;1685;53.104;8.228;2023-07-31T07:34:37;16.13;;;7.37;;
3343;SDS011;1685;53.104;8.228;2023-07-31T07:37:05;16.60;;;7.93;;
3343;SDS011;1685;53.104;8.228;2023-07-31T07:39:32;24.10;;;7.70;;
3343;SDS011;1685;53.104;8.228;2023-07-31T07:41:59;24.17;;;9.17;;
3343;SDS011;1685;53.104;8.228;2023-07-31T07:44:27;23.63;;;9.87;;
3343;SDS011;1685;53.104;8.228;2023-07-31T07:46:54;18.33;;;9.10;;
3343;SDS011;1685;53.104;8.228;2023-07-31T07:49:21;22.43;;;10.73;;
3343;SDS011;1685;53.104;8.228;2023-07-31T07:51:48;25.77;;;11.43;;
3343;SDS011;1685;53.104;8.228;2023-07-31T07:54:16;27.23;;;11.70;;
3343;SDS011;1685;53.104;8.228;2023-07-31T07:56:44;34.20;;;13.07;;
3343;SDS011;1685;53.104;8.228;2023-07-31T07:59:11;26.70;;;11.27;;
3343;SDS011;1685;53.104;8.228;2023-07-31T08:01:39;21.97;;;12.00;;
3343;SDS011;1685;53.104;8.228;2023-07-31T08:04:06;27.33;;;11.83;;
3343;SDS011;1685;53.104;8.228;2023-07-31T08:06:33;33.07;;;13.20;;
3343;SDS011;1685;53.104;8.228;2023-07-31T08:09:00;33.93;;;14.33;;
3343;SDS011;1685;53.104;8.228;2023-07-31T08:11:31;33.53;;;13.13;;
3343;SDS011;1685;53.104;8.228;2023-07-31T08:13:58;35.57;;;13.70;;
3343;SDS011;1685;53.104;8.228;2023-07-31T08:16:25;36.23;;;14.37;;
3343;SDS011;1685;53.104;8.228;2023-07-31T08:18:53;35.13;;;13.33;;
3343;SDS011;1685;53.104;8.228;2023-07-31T08:21:20;48.77;;;15.53;;
3343;SDS011;1685;53.104;8.228;2023-07-31T08:23:48;36.10;;;13.93;;
3343;SDS011;1685;53.104;8.228;2023-07-31T08:26:15;36.57;;;15.50;;
3343;SDS011;1685;53.104;8.228;2023-07-31T08:28:42;43.33;;;15.20;;
3343;SDS011;1685;53.104;8.228;2023-07-31T08:31:09;33.70;;;15.47;;
3343;SDS011;1685;53.104;8.228;2023-07-31T08:33:37;59.40;;;16.63;;
3343;SDS011;1685;53.104;8.228;2023-07-31T08:36:05;40.77;;;15.37;;
3343;SDS011;1685;53.104;8.228;2023-07-31T08:38:32;34.17;;;16.07;;
3343;SDS011;1685;53.104;8.228;2023-07-31T08:40:59;28.50;;;14.17;;
3343;SDS011;1685;53.104;8.228;2023-07-31T08:43:27;36.03;;;15.10;;
3343;SDS011;1685;53.104;8.228;2023-07-31T08:45:54;31.17;;;14.07;;
3343;SDS011;1685;53.104;8.228;2023-07-31T08:48:21;30.90;;;14.70;;
3343;SDS011;1685;53.104;8.228;2023-07-31T08:50:49;23.37;;;14.43;;
3343;SDS011;1685;53.104;8.228;2023-07-31T08:53:17;25.33;;;12.83;;
3343;SDS011;1685;53.104;8.228;2023-07-31T08:55:45;24.80;;;13.30;;
3343;SDS011;1685;53.104;8.228;2023-07-31T08:58:13;24.40;;;12.77;;
3343;SDS011;1685;53.104;8.228;2023-07-31T09:00:42;16.37;;;10.63;;
3343;SDS011;1685;53.104;8.228;2023-07-31T09:03:13;19.50;;;11.03;;
3343;SDS011;1685;53.104;8.228;2023-07-31T09:05:42;18.37;;;9.80;;
3343;SDS011;1685;53.104;8.228;2023-07-31T09:08:10;27.23;;;11.57;;
3343;SDS011;1685;53.104;8.228;2023-07-31T09:10:41;19.07;;;10.87;;
3343;SDS011;1685;53.104;8.228;2023-07-31T09:13:08;20.80;;;10.43;;
3343;SDS011;1685;53.104;8.228;2023-07-31T09:15:35;19.17;;;10.60;;
3343;SDS011;1685;53.104;8.228;2023-07-31T09:18:03;17.13;;;10.10;;
3343;SDS011;1685;53.104;8.228;2023-07-31T09:20:31;19.47;;;10.37;;
3343;SDS011;1685;53.104;8.228;2023-07-31T09:23:04;12.23;;;9.27;;
3343;SDS011;1685;53.104;8.228;2023-07-31T09:25:33;21.20;;;10.27;;
3343;SDS011;1685;53.104;8.228;2023-07-31T09:28:02;14.83;;;9.60;;
3343;SDS011;1685;53.104;8.228;2023-07-31T09:30:30;16.57;;;10.20;;
3343;SDS011;1685;53.104;8.228;2023-07-31T09:33:02;12.63;;;8.60;;
3343;SDS011;1685;53.104;8.228;2023-07-31T09:35:31;19.93;;;8.37;;
3343;SDS011;1685;53.104;8.228;2023-07-31T09:37:59;10.17;;;7.23;;
3343;SDS011;1685;53.104;8.228;2023-07-31T09:40:29;9.97;;;6.40;;
3343;SDS011;1685;53.104;8.228;2023-07-31T09:42:57;10.43;;;6.53;;
3343;SDS011;1685;53.104;8.228;2023-07-31T09:45:25;12.63;;;6.23;;
3343;SDS011;1685;53.104;8.228;2023-07-31T09:47:52;6.50;;;5.67;;
3343;SDS011;1685;53.104;8.228;2023-07-31T09:50:20;8.67;;;5.67;;
3343;SDS011;1685;53.104;8.228;2023-07-31T09:52:48;12.63;;;6.87;;
3343;SDS011;1685;53.104;8.228;2023-07-31T09:55:16;15.73;;;6.23;;
3343;SDS011;1685;53.104;8.228;2023-07-31T09:57:44;8.63;;;5.07;;
3343;SDS011;1685;53.104;8.228;2023-07-31T10:00:13;12.20;;;5.60;;
3343;SDS011;1685;53.104;8.228;2023-07-31T10:02:43;10.83;;;4.70;;
3343;SDS011;1685;53.104;8.228;2023-07-31T10:05:12;6.97;;;4.87;;
3343;SDS011;1685;53.104;8.228;2023-07-31T10:07:41;7.40;;;4.80;;
3343;SDS011;1685;53.104;8.228;2023-07-31T10:10:09;8.07;;;4.87;;
3343;SDS011;1685;53.104;8.228;2023-07-31T10:12:36;6.20;;;4.37;;
3343;SDS011;1685;53.104;8.228;2023-07-31T10:15:04;4.57;;;3.90;;
3343;SDS011;1685;53.104;8.228;2023-07-31T10:17:33;6.57;;;3.97;;
3343;SDS011;1685;53.104;8.228;2023-07-31T10:20:03;5.60;;;3.67;;
3343;SDS011;1685;53.104;8.228;2023-07-31T10:22:32;7.67;;;3.77;;
3343;SDS011;1685;53.104;8.228;2023-07-31T10:25:00;7.00;;;3.73;;
3343;SDS011;1685;53.104;8.228;2023-07-31T10:27:27;4.03;;;3.63;;
3343;SDS011;1685;53.104;8.228;2023-07-31T10:29:54;4.63;;;3.30;;
3343;SDS011;1685;53.104;8.228;2023-07-31T10:32:22;5.40;;;4.00;;
3343;SDS011;1685;53.104;8.228;2023-07-31T10:34:49;4.40;;;3.60;;
3343;SDS011;1685;53.104;8.228;2023-07-31T10:37:22;4.20;;;3.87;;
3343;SDS011;1685;53.104;8.228;2023-07-31T10:39:56;3.67;;;3.27;;
3343;SDS011;1685;53.104;8.228;2023-07-31T10:42:28;8.60;;;3.23;;
3343;SDS011;1685;53.104;8.228;2023-07-31T10:44:59;5.00;;;3.47;;
3343;SDS011;1685;53.104;8.228;2023-07-31T10:47:28;2.73;;;2.53;;
3343;SDS011;1685;53.104;8.228;2023-07-31T10:50:11;3.70;;;2.80;;
3343;SDS011;1685;53.104;8.228;2023-07-31T10:52:49;2.50;;;2.20;;
3343;SDS011;1685;53.104;8.228;2023-07-31T10:55:25;5.67;;;3.73;;
3343;SDS011;1685;53.104;8.228;2023-07-31T10:57:53;2.40;;;2.30;;
3343;SDS011;1685;53.104;8.228;2023-07-31T11:00:22;2.47;;;2.23;;
3343;SDS011;1685;53.104;8.228;2023-07-31T11:02:57;2.40;;;2.20;;
3343;SDS011;1685;53.104;8.228;2023-07-31T11:05:42;2.17;;;2.07;;
3343;SDS011;1685;53.104;8.228;2023-07-31T11:08:13;2.20;;;2.10;;
3343;SDS011;1685;53.104;8.228;2023-07-31T11:10:41;2.50;;;2.40;;
3343;SDS011;1685;53.104;8.228;2023-07-31T11:13:08;2.73;;;2.53;;
3343;SDS011;1685;53.104;8.228;2023-07-31T11:15:35;2.07;;;1.97;;
3343;SDS011;1685;53.104;8.228;2023-07-31T11:18:03;3.63;;;1.70;;
3343;SDS011;1685;53.104;8.228;2023-07-31T11:20:30;1.87;;;1.77;;
3343;SDS011;1685;53.104;8.228;2023-07-31T11:22:58;1.90;;;1.80;;
3343;SDS011;1685;53.104;8.228;2023-07-31T11:25:29;1.87;;;1.77;;
3343;SDS011;1685;53.104;8.228;2023-07-31T11:27:57;1.80;;;1.70;;
3343;SDS011;1685;53.104;8.228;2023-07-31T11:30:24;1.87;;;1.77;;
3343;SDS011;1685;53.104;8.228;2023-07-31T11:32:51;4.43;;;1.90;;
3343;SDS011;1685;53.104;8.228;2023-07-31T11:35:18;1.90;;;1.80;;
3343;SDS011;1685;53.104;8.228;2023-07-31T11:37:46;1.53;;;1.53;;
3343;SDS011;1685;53.104;8.228;2023-07-31T11:40:13;1.90;;;1.80;;
3343;SDS011;1685;53.104;8.228;2023-07-31T11:42:42;1.33;;;1.33;;
3343;SDS011;1685;53.104;8.228;2023-07-31T11:45:09;1.83;;;1.60;;
3343;SDS011;1685;53.104;8.228;2023-07-31T11:47:36;1.87;;;1.77;;
3343;SDS011;1685;53.104;8.228;2023-07-31T11:50:04;1.60;;;1.50;;
3343;SDS011;1685;53.104;8.228;2023-07-31T11:52:33;1.60;;;1.60;;
3343;SDS011;1685;53.104;8.228;2023-07-31T11:55:03;1.80;;;1.70;;
3343;SDS011;1685;53.104;8.228;2023-07-31T11:57:32;1.80;;;1.73;;
3343;SDS011;1685;53.104;8.228;2023-07-31T12:00:00;1.60;;;1.50;;
3343;SDS011;1685;53.104;8.228;2023-07-31T12:02:28;2.77;;;1.93;;
3343;SDS011;1685;53.104;8.228;2023-07-31T12:04:55;2.00;;;1.90;;
3343;SDS011;1685;53.104;8.228;2023-07-31T12:07:23;1.77;;;1.77;;
3343;SDS011;1685;53.104;8.228;2023-07-31T12:09:51;2.17;;;1.97;;
3343;SDS011;1685;53.104;8.228;2023-07-31T12:12:19;6.40;;;2.27;;
3343;SDS011;1685;53.104;8.228;2023-07-31T12:14:49;2.10;;;2.00;;
3343;SDS011;1685;53.104;8.228;2023-07-31T12:17:21;2.30;;;2.20;;
3343;SDS011;1685;53.104;8.228;2023-07-31T12:19:50;4.20;;;2.57;;
3343;SDS011;1685;53.104;8.228;2023-07-31T12:22:17;2.73;;;2.53;;
3343;SDS011;1685;53.104;8.228;2023-07-31T12:24:44;3.30;;;2.77;;
3343;SDS011;1685;53.104;8.228;2023-07-31T12:27:11;3.10;;;2.57;;
3343;SDS011;1685;53.104;8.228;2023-07-31T12:29:39;3.07;;;2.97;;
3343;SDS011;1685;53.104;8.228;2023-07-31T12:32:22;2.87;;;2.77;;
3343;SDS011;1685;53.104;8.228;2023-07-31T12:34:50;2.93;;;2.70;;
3343;SDS011;1685;53.104;8.228;2023-07-31T12:37:17;3.30;;;3.10;;
3343;SDS011;1685;53.104;8.228;2023-07-31T12:39:44;3.00;;;2.80;;
3343;SDS011;1685;53.104;8.228;2023-07-31T12:42:11;3.10;;;2.90;;
3343;SDS011;1685;53.104;8.228;2023-07-31T12:44:38;2.60;;;2.50;;
3343;SDS011;1685;53.104;8.228;2023-07-31T12:47:05;3.03;;;2.90;;
3343;SDS011;1685;53.104;8.228;2023-07-31T12:49:34;3.13;;;2.93;;
3343;SDS011;1685;53.104;8.228;2023-07-31T12:52:01;3.20;;;3.10;;
3343;SDS011;1685;53.104;8.228;2023-07-31T12:54:28;2.80;;;2.70;;
3343;SDS011;1685;53.104;8.228;2023-07-31T12:56:55;6.10;;;2.73;;
3343;SDS011;1685;53.104;8.228;2023-07-31T12:59:22;2.60;;;2.50;;
3343;SDS011;1685;53.104;8.228;2023-07-31T13:01:49;3.30;;;3.10;;
3343;SDS011;1685;53.104;8.228;2023-07-31T13:04:16;4.07;;;2.83;;
3343;SDS011;1685;53.104;8.228;2023-07-31T13:06:45;2.60;;;2.50;;
3343;SDS011;1685;53.104;8.228;2023-07-31T13:09:11;3.37;;;3.17;;
3343;SDS011;1685;53.104;8.228;2023-07-31T13:11:38;2.90;;;2.70;;
3343;SDS011;1685;53.104;8.228;2023-07-31T13:14:06;3.13;;;3.00;;
3343;SDS011;1685;53.104;8.228;2023-07-31T13:16:33;3.30;;;3.00;;
3343;SDS011;1685;53.104;8.228;2023-07-31T13:19:00;3.30;;;3.10;;
3343;SDS011;1685;53.104;8.228;2023-07-31T13:21:27;3.80;;;3.60;;
3343;SDS011;1685;53.104;8.228;2023-07-31T13:23:56;3.43;;;3.23;;
3343;SDS011;1685;53.104;8.228;2023-07-31T13:26:23;3.60;;;3.40;;
3343;SDS011;1685;53.104;8.228;2023-07-31T13:28:50;4.33;;;3.30;;
3343;SDS011;1685;53.104;8.228;2023-07-31T13:31:17;4.20;;;3.90;;
3343;SDS011;1685;53.104;8.228;2023-07-31T13:33:44;4.43;;;4.13;;
3343;SDS011;1685;53.104;8.228;2023-07-31T13:36:11;4.90;;;4.60;;
3343;SDS011;1685;53.104;8.228;2023-07-31T13:38:39;6.40;;;4.27;;
3343;SDS011;1685;53.104;8.228;2023-07-31T13:41:07;5.00;;;4.20;;
3343;SDS011;1685;53.104;8.228;2023-07-31T13:43:34;5.80;;;4.80;;
3343;SDS011;1685;53.104;8.228;2023-07-31T13:46:01;5.57;;;4.93;;
3343;SDS011;1685;53.104;8.228;2023-07-31T13:48:31;5.63;;;5.07;;
3343;SDS011;1685;53.104;8.228;2023-07-31T13:50:58;5.87;;;5.17;;
3343;SDS011;1685;53.104;8.228;2023-07-31T13:53:26;6.50;;;5.90;;
3343;SDS011;1685;53.104;8.228;2023-07-31T13:55:53;7.13;;;6.53;;
3343;SDS011;1685;53.104;8.228;2023-07-31T13:58:21;7.20;;;6.03;;
3343;SDS011;1685;53.104;8.228;2023-07-31T14:00:48;139.10;;;26.53;;
3343;SDS011;1685;53.104;8.228;2023-07-31T14:03:15;8.73;;;7.47;;
3343;SDS011;1685;53.104;8.228;2023-07-31T14:05:42;10.83;;;6.70;;
3343;SDS011;1685;53.104;8.228;2023-07-31T14:08:09;13.70;;;7.80;;
3343;SDS011;1685;53.104;8.228;2023-07-31T14:10:36;10.73;;;8.33;;
3343;SDS011;1685;53.104;8.228;2023-07-31T14:13:03;9.67;;;8.70;;
3343;SDS011;1685;53.104;8.228;2023-07-31T14:15:32;9.80;;;8.80;;
3343;SDS011;1685;53.104;8.228;2023-07-31T14:18:00;12.10;;;9.60;;
3343;SDS011;1685;53.104;8.228;2023-07-31T14:20:28;9.57;;;8.57;;
3343;SDS011;1685;53.104;8.228;2023-07-31T14:22:55;11.47;;;9.43;;
3343;SDS011;1685;53.104;8.228;2023-07-31T14:25:22;10.13;;;8.30;;
3343;SDS011;1685;53.104;8.228;2023-07-31T14:27:50;9.00;;;8.20;;
3343;SDS011;1685;53.104;8.228;2023-07-31T14:30:17;12.60;;;8.13;;
3343;SDS011;1685;53.104;8.228;2023-07-31T14:32:45;8.60;;;7.50;;
3343;SDS011;1685;53.104;8.228;2023-07-31T14:35:12;10.73;;;6.90;;
3343;SDS011;1685;53.104;8.228;2023-07-31T14:37:40;6.97;;;6.07;;
3343;SDS011;1685;53.104;8.228;2023-07-31T14:40:08;7.60;;;6.73;;
3343;SDS011;1685;53.104;8.228;2023-07-31T14:42:37;7.10;;;6.40;;
3343;SDS011;1685;53.104;8.228;2023-07-31T14:45:04;7.60;;;6.77;;
3343;SDS011;1685;53.104;8.228;2023-07-31T14:47:32;9.87;;;6.70;;
3343;SDS011;1685;53.104;8.228;2023-07-31T14:50:01;8.43;;;6.87;;
3343;SDS011;1685;53.104;8.228;2023-07-31T14:52:29;6.30;;;5.70;;
3343;SDS011;1685;53.104;8.228;2023-07-31T14:54:56;7.57;;;6.37;;
3343;SDS011;1685;53.104;8.228;2023-07-31T14:57:23;10.23;;;8.10;;
3343;SDS011;1685;53.104;8.228;2023-07-31T14:59:50;7.43;;;6.63;;
3343;SDS011;1685;53.104;8.228;2023-07-31T15:02:18;7.23;;;6.53;;
3343;SDS011;1685;53.104;8.228;2023-07-31T15:04:45;8.73;;;6.50;;
3343;SDS011;1685;53.104;8.228;2023-07-31T15:07:13;6.83;;;6.03;;
3343;SDS011;1685;53.104;8.228;2023-07-31T15:09:40;9.90;;;7.33;;
3343;SDS011;1685;53.104;8.228;2023-07-31T15:12:07;7.27;;;6.40;;
3343;SDS011;1685;53.104;8.228;2023-07-31T15:14:34;6.20;;;5.60;;